Time;durP1;ratioP1;P1;durP2;ratioP2;P2;SDS_P1;SDS_P2;PMS_P1;PMS_P2;Temp;Humidity;BMP_temperature;BMP_pressure;BME280_temperature;BME280_humidity;BME280_pressure;Samples;Min_cycle;Max_cycle;Signal;HPM_P1;HPM_P2
2022/04/18 00:03:50;;;;;;;4.70;4.30;;;;;;;;;;10252699;28;20073;-65
2022/04/18 00:08:49;;;;;;;3.90;3.50;;;;;;;;;;10252686;28;20465;-65
2022/04/18 00:13:48;;;;;;;3.58;3.28;;;;;;;;;;10256846;28;20501;-64
2022/04/18 00:18:47;;;;;;;3.92;3.25;;;;;;;;;;10255405;28;20508;-65
2022/04/18 00:23:45;;;;;;;4.15;3.78;;;;;;;;;;10254303;28;20069;-64
2022/04/18 00:28:44;;;;;;;5.25;3.25;;;;;;;;;;10252935;28;20064;-65
2022/04/18 00:33:43;;;;;;;3.75;3.45;;;;;;;;;;10255938;28;20469;-64
2022/04/18 00:38:44;;;;;;;3.90;3.50;;;;;;;;;;10257766;28;20071;-65
2022/04/18 00:43:43;;;;;;;3.83;3.20;;;;;;;;;;10256862;28;20073;-64
2022/04/18 00:48:42;;;;;;;4.00;3.60;;;;;;;;;;10257782;28;20064;-65
2022/04/18 00:53:43;;;;;;;4.10;3.70;;;;;;;;;;10252897;28;20545;-65
2022/04/18 00:58:41;;;;;;;4.15;3.60;;;;;;;;;;10250164;28;20075;-65
2022/04/18 01:03:40;;;;;;;3.88;3.50;;;;;;;;;;10252408;28;20654;-65
2022/04/18 01:08:39;;;;;;;4.97;4.35;;;;;;;;;;10254552;28;20477;-65
2022/04/18 01:13:42;;;;;;;5.38;3.40;;;;;;;;;;10255846;28;20388;-65
2022/04/18 01:19:02;;;;;;;4.47;4.07;;;;;;;;;;10254109;28;20529;-65
2022/04/18 01:29:41;;;;;;;3.05;2.78;;;;;;;;;;10255323;28;20081;-65
2022/04/18 01:34:40;;;;;;;3.47;3.17;;;;;;;;;;10255564;28;20077;-65
2022/04/18 01:39:40;;;;;;;4.47;4.07;;;;;;;;;;10258818;28;20075;-64
2022/04/18 01:44:39;;;;;;;4.47;3.83;;;;;;;;;;10257012;28;20073;-65
2022/04/18 01:49:38;;;;;;;3.97;3.58;;;;;;;;;;10255731;28;20494;-65
2022/04/18 01:54:36;;;;;;;4.68;4.18;;;;;;;;;;10268232;28;20064;-65
2022/04/18 01:59:36;;;;;;;3.50;3.20;;;;;;;;;;10253570;28;20491;-64
2022/04/18 02:04:34;;;;;;;4.25;3.85;;;;;;;;;;10255831;28;20069;-64
2022/04/18 02:09:36;;;;;;;4.70;3.35;;;;;;;;;;10252085;28;20107;-64
2022/04/18 02:14:36;;;;;;;4.88;3.80;;;;;;;;;;10251450;28;20498;-64
2022/04/18 02:19:34;;;;;;;3.75;3.20;;;;;;;;;;10249089;28;20494;-64
2022/04/18 02:24:33;;;;;;;3.63;3.33;;;;;;;;;;10251712;28;20564;-64
2022/04/18 02:29:31;;;;;;;4.18;3.83;;;;;;;;;;10253701;28;20084;-65
2022/04/18 02:34:31;;;;;;;5.20;4.10;;;;;;;;;;10255524;28;20550;-65
2022/04/18 02:39:31;;;;;;;6.88;4.10;;;;;;;;;;10250661;28;20119;-64
2022/04/18 02:44:29;;;;;;;4.05;3.30;;;;;;;;;;10253111;28;20088;-65
2022/04/18 02:49:28;;;;;;;4.00;3.60;;;;;;;;;;10251394;28;20084;-65
2022/04/18 02:54:28;;;;;;;4.25;3.50;;;;;;;;;;10248523;28;20470;-64
2022/04/18 02:59:27;;;;;;;4.40;4.00;;;;;;;;;;10248141;28;20089;-64
2022/04/18 03:04:25;;;;;;;4.00;3.38;;;;;;;;;;10251344;28;20053;-64
2022/04/18 03:09:24;;;;;;;4.43;4.03;;;;;;;;;;10256787;28;20087;-65
2022/04/18 03:14:24;;;;;;;3.88;3.47;;;;;;;;;;10259290;28;20076;-65
2022/04/18 03:19:30;;;;;;;5.10;4.60;;;;;;;;;;10256715;28;20068;-64
2022/04/18 03:24:29;;;;;;;8.57;6.07;;;;;;;;;;10257549;28;20068;-63
2022/04/18 03:29:49;;;;;;;5.60;5.00;;;;;;;;;;10259577;28;20088;-65
2022/04/18 03:34:56;;;;;;;11.82;10.07;;;;;;;;;;10262057;28;20096;-65
2022/04/18 03:39:57;;;;;;;8.15;6.90;;;;;;;;;;10262924;28;20079;-66
2022/04/18 03:45:00;;;;;;;5.43;4.68;;;;;;;;;;10261982;28;20084;-66
2022/04/18 03:49:58;;;;;;;14.15;10.48;;;;;;;;;;10254949;28;20151;-65
2022/04/18 03:54:57;;;;;;;14.50;11.02;;;;;;;;;;10245863;28;20505;-65
2022/04/18 04:00:04;;;;;;;3.80;3.00;;;;;;;;;;10255196;28;20073;-64
2022/04/18 04:05:10;;;;;;;8.65;7.05;;;;;;;;;;10257867;28;20064;-65
2022/04/18 04:10:10;;;;;;;7.55;5.85;;;;;;;;;;10254402;28;20072;-64
2022/04/18 04:15:11;;;;;;;7.30;6.43;;;;;;;;;;10246438;28;20072;-64
2022/04/18 04:20:19;;;;;;;8.07;7.25;;;;;;;;;;10240734;28;20468;-64
2022/04/18 04:25:20;;;;;;;12.98;8.35;;;;;;;;;;10261652;28;20068;-64
2022/04/18 04:30:19;;;;;;;5.90;4.75;;;;;;;;;;10253473;28;20081;-63
2022/04/18 04:35:29;;;;;;;6.32;4.03;;;;;;;;;;10270287;28;20080;-65
2022/04/18 04:40:34;;;;;;;4.30;3.92;;;;;;;;;;10257254;28;20575;-64
2022/04/18 04:45:37;;;;;;;4.80;3.92;;;;;;;;;;10256381;28;20084;-65
2022/04/18 04:50:58;;;;;;;4.32;3.50;;;;;;;;;;10255563;28;21397;-65
2022/04/18 04:55:57;;;;;;;11.07;7.07;;;;;;;;;;10261829;28;20455;-64
2022/04/18 05:00:57;;;;;;;11.02;8.82;;;;;;;;;;10254061;28;20073;-64
2022/04/18 05:06:07;;;;;;;6.00;4.82;;;;;;;;;;10243596;28;20084;-64
2022/04/18 05:11:12;;;;;;;5.22;4.28;;;;;;;;;;10250264;28;20087;-64
2022/04/18 05:16:24;;;;;;;7.35;4.95;;;;;;;;;;10250930;28;20095;-64
2022/04/18 05:21:28;;;;;;;6.88;4.90;;;;;;;;;;10251829;28;20092;-64
2022/04/18 05:26:31;;;;;;;7.28;6.57;;;;;;;;;;10248865;28;20139;-65
2022/04/18 05:31:31;;;;;;;186.95;132.30;;;;;;;;;;10266614;28;20084;-65
2022/04/18 05:36:31;;;;;;;17.52;15.13;;;;;;;;;;10255878;28;20505;-64
2022/04/18 05:41:31;;;;;;;30.00;18.42;;;;;;;;;;10246849;28;20191;-64
2022/04/18 05:46:30;;;;;;;60.92;55.03;;;;;;;;;;10245463;28;20073;-65
2022/04/18 05:51:29;;;;;;;10.73;9.63;;;;;;;;;;10248217;28;20497;-65
2022/04/18 05:56:28;;;;;;;9.75;8.50;;;;;;;;;;10249964;28;20076;-64
2022/04/18 06:01:30;;;;;;;8.80;7.88;;;;;;;;;;10242588;28;20792;-65
2022/04/18 06:06:34;;;;;;;12.88;10.57;;;;;;;;;;10248133;28;20181;-65
2022/04/18 06:11:33;;;;;;;12.63;8.77;;;;;;;;;;10251062;28;20349;-64
2022/04/18 06:16:43;;;;;;;52.78;34.63;;;;;;;;;;10257399;28;20080;-64
2022/04/18 06:21:43;;;;;;;123.63;86.72;;;;;;;;;;10251830;28;20072;-64
2022/04/18 06:26:42;;;;;;;18.42;13.20;;;;;;;;;;10250842;28;20560;-63
2022/04/18 06:31:40;;;;;;;18.27;9.20;;;;;;;;;;10247765;28;20065;-63
2022/04/18 06:36:42;;;;;;;10.55;6.95;;;;;;;;;;10247677;28;20065;-63
2022/04/18 06:42:02;;;;;;;22.88;10.57;;;;;;;;;;10247900;28;20091;-63
2022/04/18 06:47:11;;;;;;;6.30;5.22;;;;;;;;;;10248787;28;20099;-64
2022/04/18 06:52:37;;;;;;;6.18;4.60;;;;;;;;;;10257231;28;20080;-63
2022/04/18 06:57:54;;;;;;;5.60;4.40;;;;;;;;;;10259891;28;20071;-64
2022/04/18 07:02:52;;;;;;;8.48;7.55;;;;;;;;;;10251076;28;20084;-63
2022/04/18 07:07:53;;;;;;;4.30;3.90;;;;;;;;;;10273371;28;20443;-64
2022/04/18 07:12:51;;;;;;;3.60;3.30;;;;;;;;;;10249478;28;20072;-63
2022/04/18 07:17:50;;;;;;;4.45;4.03;;;;;;;;;;10251158;28;20065;-64
2022/04/18 07:22:49;;;;;;;5.38;3.72;;;;;;;;;;10253212;28;20072;-63
2022/04/18 07:27:51;;;;;;;5.20;4.32;;;;;;;;;;10250712;28;20080;-63
2022/04/18 07:32:50;;;;;;;4.82;3.20;;;;;;;;;;10254038;28;20557;-63
2022/04/18 07:43:07;;;;;;;5.55;3.60;;;;;;;;;;10256357;28;20083;-63
2022/04/18 07:48:06;;;;;;;4.70;3.65;;;;;;;;;;10257271;28;20081;-63
2022/04/18 07:53:06;;;;;;;4.70;3.97;;;;;;;;;;10253033;28;20073;-64
2022/04/18 07:58:05;;;;;;;5.38;4.80;;;;;;;;;;10251666;28;20569;-63
2022/04/18 08:03:05;;;;;;;8.65;6.78;;;;;;;;;;10254324;28;20064;-63
2022/04/18 08:08:18;;;;;;;4.77;3.70;;;;;;;;;;10250226;28;20469;-63
2022/04/18 08:13:17;;;;;;;5.05;4.28;;;;;;;;;;10255374;28;20144;-63
2022/04/18 08:18:42;;;;;;;5.35;4.85;;;;;;;;;;10253083;28;20087;-63
2022/04/18 08:23:46;;;;;;;6.72;5.35;;;;;;;;;;10250242;28;20088;-64
2022/04/18 08:29:03;;;;;;;7.03;6.13;;;;;;;;;;10259983;28;20095;-63
2022/04/18 08:34:08;;;;;;;7.95;3.45;;;;;;;;;;10253410;28;20076;-63
2022/04/18 08:39:07;;;;;;;5.20;2.70;;;;;;;;;;10255097;28;20068;-63
2022/04/18 08:44:18;;;;;;;7.85;4.13;;;;;;;;;;10257334;28;20076;-63
2022/04/18 08:54:36;;;;;;;15.15;7.93;;;;;;;;;;10255123;28;20072;-63
2022/04/18 08:59:34;;;;;;;3.90;2.95;;;;;;;;;;10252361;28;20075;-63
2022/04/18 09:04:37;;;;;;;4.63;4.07;;;;;;;;;;10255652;28;20103;-63
2022/04/18 09:09:36;;;;;;;7.30;5.53;;;;;;;;;;10257167;28;20072;-63
2022/04/18 09:14:41;;;;;;;17.40;13.70;;;;;;;;;;10254677;28;20069;-63
2022/04/18 09:19:41;;;;;;;23.15;18.80;;;;;;;;;;10256485;28;20087;-62
2022/04/18 09:24:47;;;;;;;19.93;15.80;;;;;;;;;;10254338;28;20079;-63
2022/04/18 09:30:01;;;;;;;10.95;7.40;;;;;;;;;;10253269;28;20091;-63
2022/04/18 09:35:03;;;;;;;5.93;4.53;;;;;;;;;;10256836;28;20084;-63
2022/04/18 09:40:09;;;;;;;10.52;8.23;;;;;;;;;;10260017;28;20089;-63
2022/04/18 09:45:08;;;;;;;7.78;6.38;;;;;;;;;;10258756;28;20080;-64
2022/04/18 09:50:58;;;;;;;9.82;5.85;;;;;;;;;;10256333;28;20084;-64
2022/04/18 09:55:47;;;;;;;7.07;4.95;;;;;;;;;;10254940;28;20073;-62
2022/04/18 10:00:45;;;;;;;8.25;6.43;;;;;;;;;;10254825;28;20119;-63
2022/04/18 10:05:45;;;;;;;8.38;4.32;;;;;;;;;;10253727;28;20063;-64
2022/04/18 10:10:44;;;;;;;5.05;4.15;;;;;;;;;;10253965;28;20068;-64
2022/04/18 10:15:43;;;;;;;4.63;3.80;;;;;;;;;;10252912;28;20068;-64
2022/04/18 10:20:47;;;;;;;5.80;4.55;;;;;;;;;;10256686;28;20077;-64
2022/04/18 10:26:00;;;;;;;5.20;3.95;;;;;;;;;;10256015;28;20076;-64
2022/04/18 10:30:59;;;;;;;4.05;3.47;;;;;;;;;;10222029;28;20072;-61
2022/04/18 10:36:03;;;;;;;8.13;4.95;;;;;;;;;;10261168;28;20080;-62
2022/04/18 10:46:23;;;;;;;5.63;4.47;;;;;;;;;;10471220;27;20643;-63
2022/04/18 10:51:28;;;;;;;5.55;3.83;;;;;;;;;;10420542;28;20063;-63
2022/04/18 10:56:29;;;;;;;5.40;3.90;;;;;;;;;;10420251;28;20055;-63
2022/04/18 11:01:36;;;;;;;5.90;3.13;;;;;;;;;;10413555;27;20567;-63
2022/04/18 11:06:44;;;;;;;2.50;2.30;;;;;;;;;;10401793;28;20063;-63
2022/04/18 11:11:45;;;;;;;2.80;2.50;;;;;;;;;;10398970;28;20093;-64
2022/04/18 11:16:49;;;;;;;7.25;6.32;;;;;;;;;;10417838;28;20067;-63
2022/04/18 11:22:07;;;;;;;4.45;4.05;;;;;;;;;;10419514;27;20067;-64
2022/04/18 11:27:07;;;;;;;4.47;3.22;;;;;;;;;;10421150;27;20073;-64
2022/04/18 11:32:07;;;;;;;3.85;3.35;;;;;;;;;;10416238;28;20063;-64
2022/04/18 11:37:08;;;;;;;6.68;4.82;;;;;;;;;;10417960;28;20082;-62
2022/04/18 11:42:07;;;;;;;7.78;3.33;;;;;;;;;;10417046;28;20083;-62
2022/04/18 11:47:10;;;;;;;5.03;2.88;;;;;;;;;;10417781;28;20078;-63
2022/04/18 11:52:17;;;;;;;4.68;3.72;;;;;;;;;;10415742;28;20063;-63
2022/04/18 11:57:16;;;;;;;3.30;3.00;;;;;;;;;;10390585;27;20071;-63
2022/04/18 12:07:32;;;;;;;4.07;2.72;;;;;;;;;;10387794;28;20075;-63
2022/04/18 12:12:31;;;;;;;4.10;2.72;;;;;;;;;;10375245;28;20063;-63
2022/04/18 12:17:33;;;;;;;4.97;2.80;;;;;;;;;;10377071;28;20063;-63
2022/04/18 12:22:31;;;;;;;3.33;2.30;;;;;;;;;;10369834;28;20113;-62
2022/04/18 12:27:37;;;;;;;6.30;2.78;;;;;;;;;;10385587;28;20063;-62
2022/04/18 12:32:38;;;;;;;4.65;4.18;;;;;;;;;;10371265;28;20080;-63
2022/04/18 12:37:36;;;;;;;3.10;2.53;;;;;;;;;;10380683;28;20070;-63
2022/04/18 12:42:35;;;;;;;5.18;2.95;;;;;;;;;;10376472;28;20094;-62
2022/04/18 12:47:33;;;;;;;3.08;2.60;;;;;;;;;;10376696;28;20055;-63
2022/04/18 12:52:33;;;;;;;4.85;2.78;;;;;;;;;;10382741;28;20067;-62
2022/04/18 12:57:31;;;;;;;3.33;2.40;;;;;;;;;;10379924;28;20063;-62
2022/04/18 13:02:29;;;;;;;3.58;2.90;;;;;;;;;;10383861;28;20401;-63
2022/04/18 13:07:28;;;;;;;4.35;2.60;;;;;;;;;;10368733;28;20632;-63
2022/04/18 13:12:30;;;;;;;3.92;2.78;;;;;;;;;;10377561;28;20165;-63
2022/04/18 13:17:35;;;;;;;6.88;4.70;;;;;;;;;;10371328;28;20059;-63
2022/04/18 13:22:35;;;;;;;6.00;2.53;;;;;;;;;;10375858;28;20067;-63
2022/04/18 13:27:35;;;;;;;2.60;2.40;;;;;;;;;;10374091;28;20067;-63
2022/04/18 13:32:33;;;;;;;4.13;2.65;;;;;;;;;;10382969;28;20063;-63
2022/04/18 13:37:31;;;;;;;3.97;3.30;;;;;;;;;;10366419;28;20056;-63
2022/04/18 13:42:29;;;;;;;3.22;2.58;;;;;;;;;;10369078;28;20086;-62
2022/04/18 13:47:29;;;;;;;4.53;2.33;;;;;;;;;;10371289;28;20063;-62
2022/04/18 13:52:27;;;;;;;7.55;3.83;;;;;;;;;;10368943;28;20412;-62
2022/04/18 13:57:26;;;;;;;5.95;3.70;;;;;;;;;;10374882;28;20067;-62
2022/04/18 14:02:24;;;;;;;4.97;2.42;;;;;;;;;;10370129;28;20075;-62
2022/04/18 14:07:24;;;;;;;2.45;2.00;;;;;;;;;;10384055;28;20082;-63
2022/04/18 14:12:22;;;;;;;6.38;4.13;;;;;;;;;;10384271;28;20067;-62
2022/04/18 14:22:38;;;;;;;3.03;2.70;;;;;;;;;;10364540;28;20432;-63
2022/04/18 14:27:36;;;;;;;2.80;2.47;;;;;;;;;;10368701;28;20078;-63
2022/04/18 14:32:34;;;;;;;15.00;11.40;;;;;;;;;;10377066;28;20055;-63
2022/04/18 14:37:33;;;;;;;42.00;30.92;;;;;;;;;;10378792;28;20059;-63
2022/04/18 14:42:32;;;;;;;5.18;4.53;;;;;;;;;;10368826;28;20461;-62
2022/04/18 14:47:31;;;;;;;7.50;5.53;;;;;;;;;;10367472;28;20083;-64
2022/04/18 14:52:29;;;;;;;12.63;8.18;;;;;;;;;;10370337;28;20074;-63
2022/04/18 14:57:28;;;;;;;7.80;5.65;;;;;;;;;;10385317;28;20633;-63
2022/04/18 15:02:27;;;;;;;10.88;8.70;;;;;;;;;;10370071;28;20066;-64
2022/04/18 15:07:27;;;;;;;12.23;7.28;;;;;;;;;;10374810;28;20102;-64
2022/04/18 15:12:27;;;;;;;7.22;4.90;;;;;;;;;;10379134;28;20071;-64
2022/04/18 15:17:26;;;;;;;7.18;3.85;;;;;;;;;;10367771;28;20083;-64
2022/04/18 15:22:25;;;;;;;7.22;6.53;;;;;;;;;;10368833;28;20067;-63
2022/04/18 15:27:24;;;;;;;11.60;10.40;;;;;;;;;;10374731;28;20063;-64
2022/04/18 15:32:22;;;;;;;7.65;5.05;;;;;;;;;;10379624;28;20456;-63
2022/04/18 15:37:20;;;;;;;5.22;3.45;;;;;;;;;;10377417;28;20584;-63
2022/04/18 15:42:20;;;;;;;10.88;7.10;;;;;;;;;;10374465;28;20083;-63
2022/04/18 15:47:18;;;;;;;40.25;30.05;;;;;;;;;;10381246;28;20070;-63
2022/04/18 15:52:16;;;;;;;22.27;16.15;;;;;;;;;;10372918;28;20074;-63
2022/04/18 15:57:14;;;;;;;28.08;20.65;;;;;;;;;;10380141;28;20067;-63
2022/04/18 16:02:14;;;;;;;14.75;9.88;;;;;;;;;;10384039;28;20071;-63
2022/04/18 16:07:12;;;;;;;18.10;13.63;;;;;;;;;;10386517;28;20083;-62
2022/04/18 16:12:11;;;;;;;25.08;18.55;;;;;;;;;;10388208;28;20081;-63
2022/04/18 16:17:09;;;;;;;24.90;16.00;;;;;;;;;;10387175;28;20071;-63
2022/04/18 16:22:09;;;;;;;14.55;11.43;;;;;;;;;;10372220;28;20101;-62
2022/04/18 16:27:07;;;;;;;18.95;12.98;;;;;;;;;;10373498;28;20078;-62
2022/04/18 16:32:05;;;;;;;19.98;14.57;;;;;;;;;;10377189;28;20063;-62
2022/04/18 16:37:05;;;;;;;21.17;17.13;;;;;;;;;;10376057;28;20071;-63
2022/04/18 16:47:21;;;;;;;20.30;15.65;;;;;;;;;;10379015;28;20087;-63
2022/04/18 16:52:19;;;;;;;15.45;11.05;;;;;;;;;;10381142;28;20493;-63
2022/04/18 16:57:19;;;;;;;15.20;11.63;;;;;;;;;;10383891;28;20555;-63
2022/04/18 17:02:17;;;;;;;16.20;12.27;;;;;;;;;;10381936;28;20048;-64
2022/04/18 17:07:15;;;;;;;21.10;17.20;;;;;;;;;;10383000;28;20070;-63
2022/04/18 17:12:13;;;;;;;9.63;6.50;;;;;;;;;;10383654;28;20071;-64
2022/04/18 17:17:13;;;;;;;11.80;8.95;;;;;;;;;;10384386;28;20425;-63
2022/04/18 17:22:11;;;;;;;14.15;7.53;;;;;;;;;;10384313;28;20078;-64
2022/04/18 17:27:10;;;;;;;18.63;12.50;;;;;;;;;;10385082;28;20063;-62
2022/04/18 17:32:08;;;;;;;11.10;9.00;;;;;;;;;;10384655;28;20068;-62
2022/04/18 17:37:10;;;;;;;14.20;10.85;;;;;;;;;;10384074;28;20074;-64
2022/04/18 17:42:09;;;;;;;11.27;7.88;;;;;;;;;;10385146;28;20078;-63
2022/04/18 17:47:07;;;;;;;8.55;6.93;;;;;;;;;;10379373;28;20126;-61
2022/04/18 17:52:06;;;;;;;9.77;5.35;;;;;;;;;;10370900;28;20071;-62
2022/04/18 17:57:06;;;;;;;4.95;4.35;;;;;;;;;;10377709;28;20062;-62
2022/04/18 18:02:05;;;;;;;41.33;25.60;;;;;;;;;;10379498;28;20067;-63
2022/04/18 18:07:04;;;;;;;24.45;17.75;;;;;;;;;;10372960;28;20076;-63
2022/04/18 18:12:03;;;;;;;31.70;18.30;;;;;;;;;;10376091;28;20317;-62
2022/04/18 18:17:03;;;;;;;34.35;21.05;;;;;;;;;;10357201;27;20067;-63
2022/04/18 18:22:03;;;;;;;103.88;56.08;;;;;;;;;;10367787;28;20469;-63
2022/04/18 18:27:01;;;;;;;78.25;50.75;;;;;;;;;;10373306;28;20075;-62
2022/04/18 18:32:00;;;;;;;38.90;24.73;;;;;;;;;;10371270;28;20055;-62
2022/04/18 18:36:59;;;;;;;35.60;31.77;;;;;;;;;;10373714;28;20055;-62
2022/04/18 18:41:58;;;;;;;14.07;12.70;;;;;;;;;;10377912;28;20082;-62
2022/04/18 18:46:56;;;;;;;94.30;61.35;;;;;;;;;;10375597;28;20066;-62
2022/04/18 18:57:12;;;;;;;10.00;6.80;;;;;;;;;;10376286;28;20071;-63
2022/04/18 19:02:10;;;;;;;11.15;6.18;;;;;;;;;;10376693;28;20072;-63
2022/04/18 19:07:08;;;;;;;12.20;6.75;;;;;;;;;;10381715;28;20063;-62
2022/04/18 19:12:07;;;;;;;10.98;7.93;;;;;;;;;;10382613;28;20070;-62
2022/04/18 19:27:51;;;;;;;12.07;7.20;;;;;;;;;;10336288;28;20086;-63
2022/04/18 19:32:50;;;;;;;10.90;6.78;;;;;;;;;;10382024;28;20071;-62
2022/04/18 19:37:49;;;;;;;7.95;5.63;;;;;;;;;;10377304;28;20064;-62
2022/04/18 19:42:48;;;;;;;17.63;11.35;;;;;;;;;;10377699;28;20103;-62
2022/04/18 19:47:47;;;;;;;13.02;10.13;;;;;;;;;;10383753;28;20067;-62
2022/04/18 19:52:46;;;;;;;11.68;7.95;;;;;;;;;;10383837;28;20479;-62
2022/04/18 19:57:45;;;;;;;10.18;5.53;;;;;;;;;;10376819;28;20465;-62
2022/04/18 20:02:43;;;;;;;8.90;5.15;;;;;;;;;;10384480;28;20512;-63
2022/04/18 20:07:41;;;;;;;5.28;4.28;;;;;;;;;;10383281;28;20070;-62
2022/04/18 20:12:41;;;;;;;5.70;4.85;;;;;;;;;;10381289;28;20063;-62
2022/04/18 20:17:39;;;;;;;6.20;4.70;;;;;;;;;;10383544;28;20075;-63
2022/04/18 20:22:38;;;;;;;6.75;5.07;;;;;;;;;;10385605;28;20063;-62
2022/04/18 20:27:36;;;;;;;6.15;4.78;;;;;;;;;;10383423;28;20066;-62
2022/04/18 20:32:36;;;;;;;7.63;5.00;;;;;;;;;;10383743;28;20130;-62
2022/04/18 20:37:35;;;;;;;5.72;4.88;;;;;;;;;;10380897;28;20074;-62
2022/04/18 20:42:34;;;;;;;7.32;5.20;;;;;;;;;;10379045;28;20070;-62
2022/04/18 20:47:33;;;;;;;6.03;4.75;;;;;;;;;;10380088;28;20074;-62
2022/04/18 21:03:11;;;;;;;5.95;4.85;;;;;;;;;;10381515;28;20063;-62
2022/04/18 21:08:12;;;;;;;6.43;4.95;;;;;;;;;;10383364;28;20122;-62
2022/04/18 21:13:10;;;;;;;7.75;5.38;;;;;;;;;;10382644;28;20063;-62
2022/04/18 21:18:09;;;;;;;6.68;5.35;;;;;;;;;;10385247;28;20055;-62
2022/04/18 21:23:10;;;;;;;5.85;5.25;;;;;;;;;;10383888;28;20066;-63
2022/04/18 21:28:10;;;;;;;6.75;5.30;;;;;;;;;;10382021;28;20059;-62
2022/04/18 21:33:09;;;;;;;6.40;5.70;;;;;;;;;;10382870;28;20063;-62
2022/04/18 21:38:07;;;;;;;6.85;5.38;;;;;;;;;;10383693;28;20055;-62
2022/04/18 21:43:06;;;;;;;5.35;4.85;;;;;;;;;;10381411;28;20063;-62
2022/04/18 21:48:06;;;;;;;7.47;5.20;;;;;;;;;;10381726;28;20075;-62
2022/04/18 21:53:04;;;;;;;6.28;5.25;;;;;;;;;;10383058;28;20381;-62
2022/04/18 21:58:03;;;;;;;5.80;5.20;;;;;;;;;;10380018;28;20067;-63
2022/04/18 22:03:02;;;;;;;8.13;7.03;;;;;;;;;;10382037;28;20078;-62
2022/04/18 22:08:01;;;;;;;7.40;6.30;;;;;;;;;;10384325;28;20074;-62
2022/04/18 22:13:00;;;;;;;12.95;8.20;;;;;;;;;;10382405;28;20078;-63
2022/04/18 22:18:01;;;;;;;7.82;6.88;;;;;;;;;;10383191;28;20508;-63
2022/04/18 22:28:16;;;;;;;9.70;8.70;;;;;;;;;;10379196;28;20475;-62
2022/04/18 22:33:14;;;;;;;12.30;8.02;;;;;;;;;;10381491;28;20063;-62
2022/04/18 22:38:13;;;;;;;10.40;7.70;;;;;;;;;;10381139;28;20090;-62
2022/04/18 22:43:12;;;;;;;7.70;5.68;;;;;;;;;;10382784;28;20356;-62
2022/04/18 22:48:12;;;;;;;8.02;6.40;;;;;;;;;;10382790;28;20114;-63
2022/04/18 22:53:10;;;;;;;7.60;6.40;;;;;;;;;;10397152;28;20070;-63
2022/04/18 22:58:08;;;;;;;11.10;8.40;;;;;;;;;;10380108;28;20070;-63
2022/04/18 23:03:07;;;;;;;9.55;6.82;;;;;;;;;;10382579;28;20059;-63
2022/04/18 23:08:07;;;;;;;20.30;12.10;;;;;;;;;;10384417;28;20519;-63
2022/04/18 23:13:06;;;;;;;6.70;5.70;;;;;;;;;;10384407;28;20059;-63
2022/04/18 23:18:05;;;;;;;5.03;4.15;;;;;;;;;;10373886;28;20565;-64
2022/04/18 23:23:03;;;;;;;5.35;4.85;;;;;;;;;;10377536;28;20063;-63
2022/04/18 23:28:02;;;;;;;5.57;4.78;;;;;;;;;;10368889;28;20485;-63
2022/04/18 23:33:01;;;;;;;7.25;6.07;;;;;;;;;;10373943;28;20078;-63
2022/04/18 23:38:00;;;;;;;6.03;4.78;;;;;;;;;;10367625;28;20105;-63
2022/04/18 23:42:58;;;;;;;5.05;3.95;;;;;;;;;;10360368;28;20421;-63
2022/04/18 23:47:58;;;;;;;4.40;4.00;;;;;;;;;;10376521;28;20607;-62
2022/04/18 23:52:56;;;;;;;4.88;4.45;;;;;;;;;;10383363;28;20063;-63
2022/04/18 23:57:54;;;;;;;4.95;4.18;;;;;;;;;;10379438;28;20067;-62
